Terminal Aerodrome Forecast
Issued by NWS Cleveland, OH

Home | Current Version | Previous Version | Graphics & Text | Print | Product List | Glossary On
Versions: 1 2 3 4 5 6 7 8 9 10 11 12 13
000
FTUS41 KCLE 272300
TAFMFD
TAF
KMFD 272328Z 2800/2824 18012KT P6SM BKN250
     FM280200 20010KT P6SM BKN150 WS020/22045KT
     FM281300 20015G25KT P6SM BKN070
     FM281600 22020G32KT 5SM SHRA VCTS OVC035CB
     FM282000 25015G25KT P6SM OVC025
      TEMPO 2820/2823 -SHRA=

USA.gov is the U.S. government's official web portal to all federal, state and local government web resources and services.